sensor_id;sensor_type;location;lat;lon;timestamp;temperature;humidity
64670;DHT22;51080;51.690;5.174;2022-08-19T00:04:14;18.00;75.00
64670;DHT22;51080;51.690;5.174;2022-08-19T00:10:29;18.00;75.30
64670;DHT22;51080;51.690;5.174;2022-08-19T00:16:15;17.90;74.10
64670;DHT22;51080;51.690;5.174;2022-08-19T00:22:00;17.90;75.30
64670;DHT22;51080;51.690;5.174;2022-08-19T00:27:49;17.80;75.20
64670;DHT22;51080;51.690;5.174;2022-08-19T00:33:33;17.80;75.30
64670;DHT22;51080;51.690;5.174;2022-08-19T00:39:21;17.70;75.30
64670;DHT22;51080;51.690;5.174;2022-08-19T00:45:35;17.70;75.50
64670;DHT22;51080;51.690;5.174;2022-08-19T00:51:20;17.70;74.50
64670;DHT22;51080;51.690;5.174;2022-08-19T00:57:09;17.60;75.50
64670;DHT22;51080;51.690;5.174;2022-08-19T01:02:54;17.60;75.60
64670;DHT22;51080;51.690;5.174;2022-08-19T01:08:39;17.50;75.80
64670;DHT22;51080;51.690;5.174;2022-08-19T01:14:24;17.50;76.00
64670;DHT22;51080;51.690;5.174;2022-08-19T01:20:12;17.50;76.00
64670;DHT22;51080;51.690;5.174;2022-08-19T01:25:58;17.40;76.00
64670;DHT22;51080;51.690;5.174;2022-08-19T01:32:16;17.30;76.10
64670;DHT22;51080;51.690;5.174;2022-08-19T01:38:05;17.30;75.00
64670;DHT22;51080;51.690;5.174;2022-08-19T01:43:51;17.30;76.00
64670;DHT22;51080;51.690;5.174;2022-08-19T01:49:37;17.20;76.00
64670;DHT22;51080;51.690;5.174;2022-08-19T01:55:22;17.20;76.50
64670;DHT22;51080;51.690;5.174;2022-08-19T02:01:07;17.10;76.40
64670;DHT22;51080;51.690;5.174;2022-08-19T02:06:52;17.00;76.60
64670;DHT22;51080;51.690;5.174;2022-08-19T02:13:08;17.00;76.80
64670;DHT22;51080;51.690;5.174;2022-08-19T02:18:53;17.00;75.80
64670;DHT22;51080;51.690;5.174;2022-08-19T02:24:39;16.90;76.90
64670;DHT22;51080;51.690;5.174;2022-08-19T02:30:54;16.90;77.00
64670;DHT22;51080;51.690;5.174;2022-08-19T02:36:39;16.80;75.80
64670;DHT22;51080;51.690;5.174;2022-08-19T02:42:25;16.80;77.40
64670;DHT22;51080;51.690;5.174;2022-08-19T02:48:09;16.90;78.20
64670;DHT22;51080;51.690;5.174;2022-08-19T02:53:54;16.90;77.70
64670;DHT22;51080;51.690;5.174;2022-08-19T02:59:39;16.90;77.70
64670;DHT22;51080;51.690;5.174;2022-08-19T03:06:09;16.90;77.60
64670;DHT22;51080;51.690;5.174;2022-08-19T03:11:54;16.90;76.80
64670;DHT22;51080;51.690;5.174;2022-08-19T03:17:38;16.80;77.60
64670;DHT22;51080;51.690;5.174;2022-08-19T03:23:23;16.80;77.80
64670;DHT22;51080;51.690;5.174;2022-08-19T03:29:09;16.80;78.30
64670;DHT22;51080;51.690;5.174;2022-08-19T03:34:53;16.70;78.00
64670;DHT22;51080;51.690;5.174;2022-08-19T03:40:37;16.60;78.00
64670;DHT22;51080;51.690;5.174;2022-08-19T03:46:24;16.60;77.90
64670;DHT22;51080;51.690;5.174;2022-08-19T03:52:10;16.60;78.40
64670;DHT22;51080;51.690;5.174;2022-08-19T03:57:55;16.50;78.20
64670;DHT22;51080;51.690;5.174;2022-08-19T04:03:40;16.50;78.30
64670;DHT22;51080;51.690;5.174;2022-08-19T04:09:25;16.40;78.40
64670;DHT22;51080;51.690;5.174;2022-08-19T04:15:10;16.40;78.50
64670;DHT22;51080;51.690;5.174;2022-08-19T04:20:55;16.40;78.80
64670;DHT22;51080;51.690;5.174;2022-08-19T04:26:40;16.40;78.80
64670;DHT22;51080;51.690;5.174;2022-08-19T04:32:25;16.40;79.00
64670;DHT22;51080;51.690;5.174;2022-08-19T04:38:19;16.40;80.00
64670;DHT22;51080;51.690;5.174;2022-08-19T04:44:05;16.50;80.70
64670;DHT22;51080;51.690;5.174;2022-08-19T04:49:49;16.60;80.60
64670;DHT22;51080;51.690;5.174;2022-08-19T04:55:33;16.70;80.70
64670;DHT22;51080;51.690;5.174;2022-08-19T05:01:20;16.70;80.70
64670;DHT22;51080;51.690;5.174;2022-08-19T05:07:06;16.70;81.00
64670;DHT22;51080;51.690;5.174;2022-08-19T05:13:21;16.80;81.30
64670;DHT22;51080;51.690;5.174;2022-08-19T05:19:06;16.80;81.00
64670;DHT22;51080;51.690;5.174;2022-08-19T05:24:50;16.90;80.50
64670;DHT22;51080;51.690;5.174;2022-08-19T05:30:36;16.90;81.30
64670;DHT22;51080;51.690;5.174;2022-08-19T05:36:20;16.90;81.30
64670;DHT22;51080;51.690;5.174;2022-08-19T05:42:34;17.00;80.20
64670;DHT22;51080;51.690;5.174;2022-08-19T05:48:17;17.00;80.60
64670;DHT22;51080;51.690;5.174;2022-08-19T05:54:02;17.00;80.90
64670;DHT22;51080;51.690;5.174;2022-08-19T05:59:47;17.10;80.40
64670;DHT22;51080;51.690;5.174;2022-08-19T06:05:32;17.60;79.20
64670;DHT22;51080;51.690;5.174;2022-08-19T06:11:25;17.90;78.80
64670;DHT22;51080;51.690;5.174;2022-08-19T06:17:10;18.20;77.80
64670;DHT22;51080;51.690;5.174;2022-08-19T06:23:26;18.40;77.70
64670;DHT22;51080;51.690;5.174;2022-08-19T06:29:15;18.50;76.80
64670;DHT22;51080;51.690;5.174;2022-08-19T06:35:01;18.60;77.10
64670;DHT22;51080;51.690;5.174;2022-08-19T06:40:48;18.70;76.70
64670;DHT22;51080;51.690;5.174;2022-08-19T06:46:36;18.80;76.70
64670;DHT22;51080;51.690;5.174;2022-08-19T06:52:24;18.80;76.60
64670;DHT22;51080;51.690;5.174;2022-08-19T06:58:11;18.90;77.00
64670;DHT22;51080;51.690;5.174;2022-08-19T07:03:56;18.90;77.00
64670;DHT22;51080;51.690;5.174;2022-08-19T07:09:44;18.90;77.60
64670;DHT22;51080;51.690;5.174;2022-08-19T07:15:35;19.10;77.20
64670;DHT22;51080;51.690;5.174;2022-08-19T07:21:27;19.40;76.70
64670;DHT22;51080;51.690;5.174;2022-08-19T07:27:15;19.40;76.40
64670;DHT22;51080;51.690;5.174;2022-08-19T07:33:04;19.60;76.00
64670;DHT22;51080;51.690;5.174;2022-08-19T07:38:52;19.70;75.60
64670;DHT22;51080;51.690;5.174;2022-08-19T07:44:38;19.90;75.20
64670;DHT22;51080;51.690;5.174;2022-08-19T07:50:26;20.10;74.50
64670;DHT22;51080;51.690;5.174;2022-08-19T07:56:17;20.10;74.00
64670;DHT22;51080;51.690;5.174;2022-08-19T08:02:08;20.00;74.60
64670;DHT22;51080;51.690;5.174;2022-08-19T08:07:58;20.20;74.50
64670;DHT22;51080;51.690;5.174;2022-08-19T08:13:45;20.40;74.00
64670;DHT22;51080;51.690;5.174;2022-08-19T08:19:35;20.60;73.40
64670;DHT22;51080;51.690;5.174;2022-08-19T08:25:26;20.70;73.30
64670;DHT22;51080;51.690;5.174;2022-08-19T08:31:13;21.00;72.60
64670;DHT22;51080;51.690;5.174;2022-08-19T08:37:01;21.20;71.90
64670;DHT22;51080;51.690;5.174;2022-08-19T08:43:03;21.30;71.80
64670;DHT22;51080;51.690;5.174;2022-08-19T08:49:16;21.50;71.30
64670;DHT22;51080;51.690;5.174;2022-08-19T08:55:06;21.50;71.20
64670;DHT22;51080;51.690;5.174;2022-08-19T09:00:56;21.30;71.70
64670;DHT22;51080;51.690;5.174;2022-08-19T09:13:07;21.30;72.00
64670;DHT22;51080;51.690;5.174;2022-08-19T09:18:58;21.30;71.80
64670;DHT22;51080;51.690;5.174;2022-08-19T09:24:49;21.40;71.60
64670;DHT22;51080;51.690;5.174;2022-08-19T09:30:40;21.50;71.40
64670;DHT22;51080;51.690;5.174;2022-08-19T09:36:29;21.50;71.50
64670;DHT22;51080;51.690;5.174;2022-08-19T09:42:17;21.70;71.20
64670;DHT22;51080;51.690;5.174;2022-08-19T09:48:06;21.90;70.40
64670;DHT22;51080;51.690;5.174;2022-08-19T09:53:59;22.10;70.30
64670;DHT22;51080;51.690;5.174;2022-08-19T09:59:47;22.30;69.70
64670;DHT22;51080;51.690;5.174;2022-08-19T10:05:34;22.40;69.20
64670;DHT22;51080;51.690;5.174;2022-08-19T10:11:23;22.50;69.00
64670;DHT22;51080;51.690;5.174;2022-08-19T10:17:12;22.50;68.90
64670;DHT22;51080;51.690;5.174;2022-08-19T10:23:03;22.90;68.60
64670;DHT22;51080;51.690;5.174;2022-08-19T10:28:51;23.80;66.50
64670;DHT22;51080;51.690;5.174;2022-08-19T10:34:40;25.20;62.80
64670;DHT22;51080;51.690;5.174;2022-08-19T10:40:31;25.30;62.50
64670;DHT22;51080;51.690;5.174;2022-08-19T10:46:22;25.50;62.30
64670;DHT22;51080;51.690;5.174;2022-08-19T10:52:12;26.00;61.20
64670;DHT22;51080;51.690;5.174;2022-08-19T10:58:00;26.40;60.10
64670;DHT22;51080;51.690;5.174;2022-08-19T11:03:49;26.50;59.40
64670;DHT22;51080;51.690;5.174;2022-08-19T11:09:40;26.90;58.00
64670;DHT22;51080;51.690;5.174;2022-08-19T11:15:31;28.80;54.70
64670;DHT22;51080;51.690;5.174;2022-08-19T11:21:28;31.80;48.00
64670;DHT22;51080;51.690;5.174;2022-08-19T11:27:18;33.10;45.50
64670;DHT22;51080;51.690;5.174;2022-08-19T11:33:08;32.80;44.60
64670;DHT22;51080;51.690;5.174;2022-08-19T11:38:58;31.40;47.40
64670;DHT22;51080;51.690;5.174;2022-08-19T11:44:47;32.10;45.70
64670;DHT22;51080;51.690;5.174;2022-08-19T11:50:36;30.70;47.10
64670;DHT22;51080;51.690;5.174;2022-08-19T11:56:24;29.90;49.30
64670;DHT22;51080;51.690;5.174;2022-08-19T12:02:24;30.10;49.70
64670;DHT22;51080;51.690;5.174;2022-08-19T12:08:16;29.90;49.10
64670;DHT22;51080;51.690;5.174;2022-08-19T12:14:10;28.20;51.90
64670;DHT22;51080;51.690;5.174;2022-08-19T12:20:05;27.10;55.20
64670;DHT22;51080;51.690;5.174;2022-08-19T12:25:56;27.10;55.50
64670;DHT22;51080;51.690;5.174;2022-08-19T12:31:49;27.10;55.20
64670;DHT22;51080;51.690;5.174;2022-08-19T12:37:41;26.90;55.90
64670;DHT22;51080;51.690;5.174;2022-08-19T12:43:31;25.50;62.30
64670;DHT22;51080;51.690;5.174;2022-08-19T12:49:18;24.20;67.60
64670;DHT22;51080;51.690;5.174;2022-08-19T12:55:07;23.50;70.30
64670;DHT22;51080;51.690;5.174;2022-08-19T13:00:55;23.40;72.40
64670;DHT22;51080;51.690;5.174;2022-08-19T13:06:42;23.80;71.50
64670;DHT22;51080;51.690;5.174;2022-08-19T13:12:30;24.00;72.30
64670;DHT22;51080;51.690;5.174;2022-08-19T13:18:18;25.10;68.90
64670;DHT22;51080;51.690;5.174;2022-08-19T13:24:06;26.30;64.00
64670;DHT22;51080;51.690;5.174;2022-08-19T13:29:55;26.50;63.40
64670;DHT22;51080;51.690;5.174;2022-08-19T13:35:53;26.60;63.30
64670;DHT22;51080;51.690;5.174;2022-08-19T13:41:46;27.30;60.50
64670;DHT22;51080;51.690;5.174;2022-08-19T13:47:33;26.90;61.30
64670;DHT22;51080;51.690;5.174;2022-08-19T13:53:23;26.70;61.20
64670;DHT22;51080;51.690;5.174;2022-08-19T13:59:12;26.90;61.00
64670;DHT22;51080;51.690;5.174;2022-08-19T14:04:59;26.80;61.70
64670;DHT22;51080;51.690;5.174;2022-08-19T14:10:46;26.50;62.80
64670;DHT22;51080;51.690;5.174;2022-08-19T14:16:34;26.60;60.70
64670;DHT22;51080;51.690;5.174;2022-08-19T14:22:21;26.60;60.80
64670;DHT22;51080;51.690;5.174;2022-08-19T14:28:21;26.70;60.90
64670;DHT22;51080;51.690;5.174;2022-08-19T14:34:14;27.10;58.00
64670;DHT22;51080;51.690;5.174;2022-08-19T14:40:03;27.20;58.40
64670;DHT22;51080;51.690;5.174;2022-08-19T14:45:53;27.20;58.00
64670;DHT22;51080;51.690;5.174;2022-08-19T14:51:41;26.60;59.40
64670;DHT22;51080;51.690;5.174;2022-08-19T14:57:28;26.00;60.60
64670;DHT22;51080;51.690;5.174;2022-08-19T15:03:21;25.50;62.60
64670;DHT22;51080;51.690;5.174;2022-08-19T15:09:09;25.10;64.20
64670;DHT22;51080;51.690;5.174;2022-08-19T15:14:56;24.50;68.20
64670;DHT22;51080;51.690;5.174;2022-08-19T15:20:43;23.70;71.90
64670;DHT22;51080;51.690;5.174;2022-08-19T15:26:31;23.00;74.80
64670;DHT22;51080;51.690;5.174;2022-08-19T15:32:18;22.80;76.00
64670;DHT22;51080;51.690;5.174;2022-08-19T15:38:06;22.80;75.40
64670;DHT22;51080;51.690;5.174;2022-08-19T15:43:57;22.70;76.10
64670;DHT22;51080;51.690;5.174;2022-08-19T15:49:45;22.50;75.10
64670;DHT22;51080;51.690;5.174;2022-08-19T15:55:40;22.30;76.20
64670;DHT22;51080;51.690;5.174;2022-08-19T16:01:28;22.40;76.50
64670;DHT22;51080;51.690;5.174;2022-08-19T16:07:15;22.50;75.10
64670;DHT22;51080;51.690;5.174;2022-08-19T16:13:03;22.50;75.40
64670;DHT22;51080;51.690;5.174;2022-08-19T16:18:51;22.50;74.80
64670;DHT22;51080;51.690;5.174;2022-08-19T16:24:39;22.60;75.30
64670;DHT22;51080;51.690;5.174;2022-08-19T16:30:26;22.60;74.60
64670;DHT22;51080;51.690;5.174;2022-08-19T16:36:16;22.60;74.80
64670;DHT22;51080;51.690;5.174;2022-08-19T16:42:06;22.60;75.50
64670;DHT22;51080;51.690;5.174;2022-08-19T16:47:53;22.40;76.50
64670;DHT22;51080;51.690;5.174;2022-08-19T16:53:45;22.10;78.20
64670;DHT22;51080;51.690;5.174;2022-08-19T16:59:33;21.80;80.30
64670;DHT22;51080;51.690;5.174;2022-08-19T17:05:26;21.90;80.80
64670;DHT22;51080;51.690;5.174;2022-08-19T17:11:23;21.90;80.20
64670;DHT22;51080;51.690;5.174;2022-08-19T17:17:15;22.10;79.30
64670;DHT22;51080;51.690;5.174;2022-08-19T17:23:04;22.20;79.50
64670;DHT22;51080;51.690;5.174;2022-08-19T17:28:54;22.00;79.30
64670;DHT22;51080;51.690;5.174;2022-08-19T17:34:41;21.80;79.50
64670;DHT22;51080;51.690;5.174;2022-08-19T17:40:30;21.80;79.50
64670;DHT22;51080;51.690;5.174;2022-08-19T17:46:19;21.80;79.60
64670;DHT22;51080;51.690;5.174;2022-08-19T17:52:10;21.60;79.80
64670;DHT22;51080;51.690;5.174;2022-08-19T17:57:58;21.60;79.40
64670;DHT22;51080;51.690;5.174;2022-08-19T18:03:48;21.70;79.40
64670;DHT22;51080;51.690;5.174;2022-08-19T18:09:39;21.70;79.50
64670;DHT22;51080;51.690;5.174;2022-08-19T18:15:26;21.70;79.60
64670;DHT22;51080;51.690;5.174;2022-08-19T18:21:17;21.60;79.50
64670;DHT22;51080;51.690;5.174;2022-08-19T18:27:07;21.40;79.80
64670;DHT22;51080;51.690;5.174;2022-08-19T18:33:02;21.10;80.20
64670;DHT22;51080;51.690;5.174;2022-08-19T18:38:50;20.80;80.60
64670;DHT22;51080;51.690;5.174;2022-08-19T18:44:42;20.70;80.90
64670;DHT22;51080;51.690;5.174;2022-08-19T18:50:33;20.60;81.70
64670;DHT22;51080;51.690;5.174;2022-08-19T18:56:21;20.50;82.30
64670;DHT22;51080;51.690;5.174;2022-08-19T19:02:09;20.40;82.00
64670;DHT22;51080;51.690;5.174;2022-08-19T19:07:58;20.30;81.90
64670;DHT22;51080;51.690;5.174;2022-08-19T19:14:00;20.30;82.20
64670;DHT22;51080;51.690;5.174;2022-08-19T19:19:50;20.20;83.00
64670;DHT22;51080;51.690;5.174;2022-08-19T19:25:38;20.20;82.70
64670;DHT22;51080;51.690;5.174;2022-08-19T19:31:25;20.10;82.80
64670;DHT22;51080;51.690;5.174;2022-08-19T19:37:13;20.00;83.00
64670;DHT22;51080;51.690;5.174;2022-08-19T19:43:02;20.00;82.70
64670;DHT22;51080;51.690;5.174;2022-08-19T19:48:49;20.10;82.50
64670;DHT22;51080;51.690;5.174;2022-08-19T19:54:37;20.10;82.10
64670;DHT22;51080;51.690;5.174;2022-08-19T20:00:25;20.10;82.10
64670;DHT22;51080;51.690;5.174;2022-08-19T20:06:15;20.10;82.30
64670;DHT22;51080;51.690;5.174;2022-08-19T20:12:03;20.00;82.40
64670;DHT22;51080;51.690;5.174;2022-08-19T20:17:51;20.00;82.60
64670;DHT22;51080;51.690;5.174;2022-08-19T20:23:39;20.00;82.60
64670;DHT22;51080;51.690;5.174;2022-08-19T20:29:28;20.10;82.60
64670;DHT22;51080;51.690;5.174;2022-08-19T20:35:18;20.10;82.90
64670;DHT22;51080;51.690;5.174;2022-08-19T20:41:08;20.20;83.10
64670;DHT22;51080;51.690;5.174;2022-08-19T20:46:55;20.10;83.30
64670;DHT22;51080;51.690;5.174;2022-08-19T20:52:43;20.00;83.10
64670;DHT22;51080;51.690;5.174;2022-08-19T20:58:28;20.00;83.30
64670;DHT22;51080;51.690;5.174;2022-08-19T21:04:13;19.90;83.20
64670;DHT22;51080;51.690;5.174;2022-08-19T21:09:58;19.80;83.20
64670;DHT22;51080;51.690;5.174;2022-08-19T21:15:43;19.80;83.60
64670;DHT22;51080;51.690;5.174;2022-08-19T21:21:30;19.80;83.40
64670;DHT22;51080;51.690;5.174;2022-08-19T21:27:14;19.80;83.60
64670;DHT22;51080;51.690;5.174;2022-08-19T21:33:03;19.80;83.40
64670;DHT22;51080;51.690;5.174;2022-08-19T21:38:54;19.70;83.50
64670;DHT22;51080;51.690;5.174;2022-08-19T21:44:40;19.70;83.60
64670;DHT22;51080;51.690;5.174;2022-08-19T21:50:28;19.70;83.70
64670;DHT22;51080;51.690;5.174;2022-08-19T21:56:16;19.70;83.60
64670;DHT22;51080;51.690;5.174;2022-08-19T22:02:03;19.60;83.50
64670;DHT22;51080;51.690;5.174;2022-08-19T22:07:53;19.50;83.80
64670;DHT22;51080;51.690;5.174;2022-08-19T22:13:40;19.60;83.90
64670;DHT22;51080;51.690;5.174;2022-08-19T22:19:28;19.60;83.80
64670;DHT22;51080;51.690;5.174;2022-08-19T22:25:28;19.60;83.70
64670;DHT22;51080;51.690;5.174;2022-08-19T22:31:16;19.60;83.50
64670;DHT22;51080;51.690;5.174;2022-08-19T22:37:03;19.50;83.50
64670;DHT22;51080;51.690;5.174;2022-08-19T22:43:03;19.50;83.60
64670;DHT22;51080;51.690;5.174;2022-08-19T22:48:52;19.60;83.60
64670;DHT22;51080;51.690;5.174;2022-08-19T22:54:39;19.50;83.80
64670;DHT22;51080;51.690;5.174;2022-08-19T23:00:27;19.50;83.80
64670;DHT22;51080;51.690;5.174;2022-08-19T23:06:15;19.50;85.20
64670;DHT22;51080;51.690;5.174;2022-08-19T23:12:03;19.20;91.00
64670;DHT22;51080;51.690;5.174;2022-08-19T23:17:49;19.10;90.00
64670;DHT22;51080;51.690;5.174;2022-08-19T23:23:34;19.20;88.60
64670;DHT22;51080;51.690;5.174;2022-08-19T23:29:19;19.30;87.30
64670;DHT22;51080;51.690;5.174;2022-08-19T23:35:04;19.30;86.80
64670;DHT22;51080;51.690;5.174;2022-08-19T23:40:50;19.30;86.40
64670;DHT22;51080;51.690;5.174;2022-08-19T23:46:34;19.30;86.20
64670;DHT22;51080;51.690;5.174;2022-08-19T23:52:18;19.30;85.80
64670;DHT22;51080;51.690;5.174;2022-08-19T23:58:04;19.30;85.90
